sensor_id;sensor_type;location;lat;lon;timestamp;temperature;humidity
10083;DHT22;5080;48.528;8.078;2023-04-15T00:02:14;7.70;99.90
10083;DHT22;5080;48.528;8.078;2023-04-15T00:04:41;7.70;99.90
10083;DHT22;5080;48.528;8.078;2023-04-15T00:07:09;7.70;99.90
10083;DHT22;5080;48.528;8.078;2023-04-15T00:09:36;7.60;99.90
10083;DHT22;5080;48.528;8.078;2023-04-15T00:12:03;7.60;99.90
10083;DHT22;5080;48.528;8.078;2023-04-15T00:14:30;7.60;99.90
10083;DHT22;5080;48.528;8.078;2023-04-15T00:16:57;7.60;99.90
10083;DHT22;5080;48.528;8.078;2023-04-15T00:19:24;7.50;99.90
10083;DHT22;5080;48.528;8.078;2023-04-15T00:21:50;7.50;99.90
10083;DHT22;5080;48.528;8.078;2023-04-15T00:24:18;7.50;99.90
10083;DHT22;5080;48.528;8.078;2023-04-15T00:26:46;7.50;99.90
10083;DHT22;5080;48.528;8.078;2023-04-15T00:29:13;7.60;99.90
10083;DHT22;5080;48.528;8.078;2023-04-15T00:31:40;7.50;99.90
10083;DHT22;5080;48.528;8.078;2023-04-15T00:34:09;7.50;99.90
10083;DHT22;5080;48.528;8.078;2023-04-15T00:36:40;7.50;99.90
10083;DHT22;5080;48.528;8.078;2023-04-15T00:39:15;7.50;99.90
10083;DHT22;5080;48.528;8.078;2023-04-15T00:41:49;7.50;99.90
10083;DHT22;5080;48.528;8.078;2023-04-15T00:44:27;7.40;99.90
10083;DHT22;5080;48.528;8.078;2023-04-15T00:46:59;7.30;99.90
10083;DHT22;5080;48.528;8.078;2023-04-15T00:49:32;7.30;99.90
10083;DHT22;5080;48.528;8.078;2023-04-15T00:52:00;7.30;99.90
10083;DHT22;5080;48.528;8.078;2023-04-15T00:54:33;7.20;99.90
10083;DHT22;5080;48.528;8.078;2023-04-15T00:57:23;7.10;99.90
10083;DHT22;5080;48.528;8.078;2023-04-15T01:00:00;7.00;99.90
10083;DHT22;5080;48.528;8.078;2023-04-15T01:02:30;6.90;99.90
10083;DHT22;5080;48.528;8.078;2023-04-15T01:05:01;6.80;99.90
10083;DHT22;5080;48.528;8.078;2023-04-15T01:07:32;6.80;99.90
10083;DHT22;5080;48.528;8.078;2023-04-15T01:09:59;6.70;99.90
10083;DHT22;5080;48.528;8.078;2023-04-15T01:12:28;6.70;99.90
10083;DHT22;5080;48.528;8.078;2023-04-15T01:14:55;6.60;99.90
10083;DHT22;5080;48.528;8.078;2023-04-15T01:17:23;6.50;99.90
10083;DHT22;5080;48.528;8.078;2023-04-15T01:19:50;6.40;99.90
10083;DHT22;5080;48.528;8.078;2023-04-15T01:22:18;6.30;99.90
10083;DHT22;5080;48.528;8.078;2023-04-15T01:24:53;6.30;99.90
10083;DHT22;5080;48.528;8.078;2023-04-15T01:27:23;6.30;99.90
10083;DHT22;5080;48.528;8.078;2023-04-15T01:29:50;6.20;99.90
10083;DHT22;5080;48.528;8.078;2023-04-15T01:32:17;6.30;99.90
10083;DHT22;5080;48.528;8.078;2023-04-15T01:34:44;6.20;99.90
10083;DHT22;5080;48.528;8.078;2023-04-15T01:37:11;6.20;99.90
10083;DHT22;5080;48.528;8.078;2023-04-15T01:39:38;6.10;99.90
10083;DHT22;5080;48.528;8.078;2023-04-15T01:42:05;6.10;99.90
10083;DHT22;5080;48.528;8.078;2023-04-15T01:44:33;6.10;99.90
10083;DHT22;5080;48.528;8.078;2023-04-15T01:47:00;6.10;99.90
10083;DHT22;5080;48.528;8.078;2023-04-15T01:49:27;6.10;99.90
10083;DHT22;5080;48.528;8.078;2023-04-15T01:51:53;6.20;99.90
10083;DHT22;5080;48.528;8.078;2023-04-15T01:54:20;6.20;99.90
10083;DHT22;5080;48.528;8.078;2023-04-15T01:56:47;6.20;99.90
10083;DHT22;5080;48.528;8.078;2023-04-15T01:59:14;6.20;99.90
10083;DHT22;5080;48.528;8.078;2023-04-15T02:01:42;6.30;99.90
10083;DHT22;5080;48.528;8.078;2023-04-15T02:04:09;6.20;99.90
10083;DHT22;5080;48.528;8.078;2023-04-15T02:06:41;6.30;99.90
10083;DHT22;5080;48.528;8.078;2023-04-15T02:09:07;6.20;99.90
10083;DHT22;5080;48.528;8.078;2023-04-15T02:11:35;6.10;99.90
10083;DHT22;5080;48.528;8.078;2023-04-15T02:14:02;6.10;99.90
10083;DHT22;5080;48.528;8.078;2023-04-15T02:16:30;6.10;99.90
10083;DHT22;5080;48.528;8.078;2023-04-15T02:18:59;6.00;99.90
10083;DHT22;5080;48.528;8.078;2023-04-15T02:21:26;5.90;99.90
10083;DHT22;5080;48.528;8.078;2023-04-15T02:23:53;5.90;99.90
10083;DHT22;5080;48.528;8.078;2023-04-15T02:26:20;5.90;99.90
10083;DHT22;5080;48.528;8.078;2023-04-15T02:28:48;5.90;99.90
10083;DHT22;5080;48.528;8.078;2023-04-15T02:31:15;5.90;99.90
10083;DHT22;5080;48.528;8.078;2023-04-15T02:33:42;5.90;99.90
10083;DHT22;5080;48.528;8.078;2023-04-15T02:36:10;5.80;99.90
10083;DHT22;5080;48.528;8.078;2023-04-15T02:38:37;5.80;99.90
10083;DHT22;5080;48.528;8.078;2023-04-15T02:41:07;5.70;99.90
10083;DHT22;5080;48.528;8.078;2023-04-15T02:43:34;5.70;99.90
10083;DHT22;5080;48.528;8.078;2023-04-15T02:46:00;5.70;99.90
10083;DHT22;5080;48.528;8.078;2023-04-15T02:48:27;5.60;99.90
10083;DHT22;5080;48.528;8.078;2023-04-15T02:51:14;5.60;99.90
10083;DHT22;5080;48.528;8.078;2023-04-15T02:53:41;5.60;99.90
10083;DHT22;5080;48.528;8.078;2023-04-15T02:56:08;5.70;99.90
10083;DHT22;5080;48.528;8.078;2023-04-15T02:58:36;5.70;99.90
10083;DHT22;5080;48.528;8.078;2023-04-15T03:01:03;5.70;99.90
10083;DHT22;5080;48.528;8.078;2023-04-15T03:03:29;5.70;99.90
10083;DHT22;5080;48.528;8.078;2023-04-15T03:05:56;5.80;99.90
10083;DHT22;5080;48.528;8.078;2023-04-15T03:08:25;5.70;99.90
10083;DHT22;5080;48.528;8.078;2023-04-15T03:10:52;5.70;99.90
10083;DHT22;5080;48.528;8.078;2023-04-15T03:13:19;5.70;99.90
10083;DHT22;5080;48.528;8.078;2023-04-15T03:15:46;5.70;99.90
10083;DHT22;5080;48.528;8.078;2023-04-15T03:18:13;5.70;99.90
10083;DHT22;5080;48.528;8.078;2023-04-15T03:20:40;5.70;99.90
10083;DHT22;5080;48.528;8.078;2023-04-15T03:23:07;5.70;99.90
10083;DHT22;5080;48.528;8.078;2023-04-15T03:25:35;5.60;99.90
10083;DHT22;5080;48.528;8.078;2023-04-15T03:28:02;5.60;99.90
10083;DHT22;5080;48.528;8.078;2023-04-15T03:30:29;5.50;99.90
10083;DHT22;5080;48.528;8.078;2023-04-15T03:32:56;5.50;99.90
10083;DHT22;5080;48.528;8.078;2023-04-15T03:35:23;5.60;99.90
10083;DHT22;5080;48.528;8.078;2023-04-15T03:37:50;5.50;99.90
10083;DHT22;5080;48.528;8.078;2023-04-15T03:40:16;5.50;99.90
10083;DHT22;5080;48.528;8.078;2023-04-15T03:42:45;5.50;99.90
10083;DHT22;5080;48.528;8.078;2023-04-15T03:45:11;5.50;99.90
10083;DHT22;5080;48.528;8.078;2023-04-15T03:47:38;5.40;99.90
10083;DHT22;5080;48.528;8.078;2023-04-15T03:50:06;5.40;99.90
10083;DHT22;5080;48.528;8.078;2023-04-15T03:52:33;5.40;99.90
10083;DHT22;5080;48.528;8.078;2023-04-15T03:55:00;5.40;99.90
10083;DHT22;5080;48.528;8.078;2023-04-15T03:57:27;5.40;99.90
10083;DHT22;5080;48.528;8.078;2023-04-15T03:59:55;5.40;99.90
10083;DHT22;5080;48.528;8.078;2023-04-15T04:02:22;5.40;99.90
10083;DHT22;5080;48.528;8.078;2023-04-15T04:04:48;5.40;99.90
10083;DHT22;5080;48.528;8.078;2023-04-15T04:07:15;5.40;99.90
10083;DHT22;5080;48.528;8.078;2023-04-15T04:09:43;5.40;99.90
10083;DHT22;5080;48.528;8.078;2023-04-15T04:12:10;5.40;99.90
10083;DHT22;5080;48.528;8.078;2023-04-15T04:14:37;5.40;99.90
10083;DHT22;5080;48.528;8.078;2023-04-15T04:17:05;5.40;99.90
10083;DHT22;5080;48.528;8.078;2023-04-15T04:19:32;5.40;99.90
10083;DHT22;5080;48.528;8.078;2023-04-15T04:21:59;5.40;99.90
10083;DHT22;5080;48.528;8.078;2023-04-15T04:24:25;5.40;99.90
10083;DHT22;5080;48.528;8.078;2023-04-15T04:26:52;5.40;99.90
10083;DHT22;5080;48.528;8.078;2023-04-15T04:29:19;5.30;99.90
10083;DHT22;5080;48.528;8.078;2023-04-15T04:31:46;5.20;99.90
10083;DHT22;5080;48.528;8.078;2023-04-15T04:34:14;5.20;99.90
10083;DHT22;5080;48.528;8.078;2023-04-15T04:36:41;5.30;99.90
10083;DHT22;5080;48.528;8.078;2023-04-15T04:39:08;5.30;99.90
10083;DHT22;5080;48.528;8.078;2023-04-15T04:41:35;5.30;99.90
10083;DHT22;5080;48.528;8.078;2023-04-15T04:44:01;5.40;99.90
10083;DHT22;5080;48.528;8.078;2023-04-15T04:46:28;5.40;99.90
10083;DHT22;5080;48.528;8.078;2023-04-15T04:48:55;5.40;99.90
10083;DHT22;5080;48.528;8.078;2023-04-15T04:51:23;5.40;99.90
10083;DHT22;5080;48.528;8.078;2023-04-15T04:53:50;5.40;99.90
10083;DHT22;5080;48.528;8.078;2023-04-15T04:56:17;5.50;99.90
10083;DHT22;5080;48.528;8.078;2023-04-15T04:58:44;5.50;99.90
10083;DHT22;5080;48.528;8.078;2023-04-15T05:01:11;5.60;99.90
10083;DHT22;5080;48.528;8.078;2023-04-15T05:03:38;5.70;99.90
10083;DHT22;5080;48.528;8.078;2023-04-15T05:06:05;5.70;99.90
10083;DHT22;5080;48.528;8.078;2023-04-15T05:08:34;5.90;99.90
10083;DHT22;5080;48.528;8.078;2023-04-15T05:11:01;5.90;99.90
10083;DHT22;5080;48.528;8.078;2023-04-15T05:13:28;5.90;99.90
10083;DHT22;5080;48.528;8.078;2023-04-15T05:15:55;5.90;99.90
10083;DHT22;5080;48.528;8.078;2023-04-15T05:18:22;5.90;99.90
10083;DHT22;5080;48.528;8.078;2023-04-15T05:20:49;6.00;99.90
10083;DHT22;5080;48.528;8.078;2023-04-15T05:23:16;6.10;99.90
10083;DHT22;5080;48.528;8.078;2023-04-15T05:25:44;6.20;99.90
10083;DHT22;5080;48.528;8.078;2023-04-15T05:28:11;6.30;99.90
10083;DHT22;5080;48.528;8.078;2023-04-15T05:30:38;6.40;99.90
10083;DHT22;5080;48.528;8.078;2023-04-15T05:33:05;6.50;99.90
10083;DHT22;5080;48.528;8.078;2023-04-15T05:35:32;6.60;99.90
10083;DHT22;5080;48.528;8.078;2023-04-15T05:37:59;6.70;99.90
10083;DHT22;5080;48.528;8.078;2023-04-15T05:40:26;6.70;99.90
10083;DHT22;5080;48.528;8.078;2023-04-15T05:42:54;6.80;99.90
10083;DHT22;5080;48.528;8.078;2023-04-15T05:45:21;6.90;99.90
10083;DHT22;5080;48.528;8.078;2023-04-15T05:47:48;7.00;99.90
10083;DHT22;5080;48.528;8.078;2023-04-15T05:50:18;7.00;99.90
10083;DHT22;5080;48.528;8.078;2023-04-15T05:52:45;7.10;99.90
10083;DHT22;5080;48.528;8.078;2023-04-15T05:55:12;7.30;99.90
10083;DHT22;5080;48.528;8.078;2023-04-15T05:57:39;7.30;99.90
10083;DHT22;5080;48.528;8.078;2023-04-15T06:00:09;7.50;99.90
10083;DHT22;5080;48.528;8.078;2023-04-15T06:02:36;7.50;99.90
10083;DHT22;5080;48.528;8.078;2023-04-15T06:05:03;7.60;99.90
10083;DHT22;5080;48.528;8.078;2023-04-15T06:07:34;7.70;99.90
10083;DHT22;5080;48.528;8.078;2023-04-15T06:10:01;7.80;99.90
10083;DHT22;5080;48.528;8.078;2023-04-15T06:12:28;7.90;99.90
10083;DHT22;5080;48.528;8.078;2023-04-15T06:14:55;7.90;99.90
10083;DHT22;5080;48.528;8.078;2023-04-15T06:17:23;8.00;99.90
10083;DHT22;5080;48.528;8.078;2023-04-15T06:19:50;8.00;99.90
10083;DHT22;5080;48.528;8.078;2023-04-15T06:22:20;8.00;99.90
10083;DHT22;5080;48.528;8.078;2023-04-15T06:24:47;8.10;99.90
10083;DHT22;5080;48.528;8.078;2023-04-15T06:27:13;8.20;99.90
10083;DHT22;5080;48.528;8.078;2023-04-15T06:29:40;8.20;99.90
10083;DHT22;5080;48.528;8.078;2023-04-15T06:32:07;8.30;99.90
10083;DHT22;5080;48.528;8.078;2023-04-15T06:34:36;8.40;99.90
10083;DHT22;5080;48.528;8.078;2023-04-15T06:37:02;8.50;99.90
10083;DHT22;5080;48.528;8.078;2023-04-15T06:39:29;8.50;99.90
10083;DHT22;5080;48.528;8.078;2023-04-15T06:41:56;8.60;99.90
10083;DHT22;5080;48.528;8.078;2023-04-15T06:44:23;8.70;99.90
10083;DHT22;5080;48.528;8.078;2023-04-15T06:46:50;8.80;99.90
10083;DHT22;5080;48.528;8.078;2023-04-15T06:49:17;8.80;99.90
10083;DHT22;5080;48.528;8.078;2023-04-15T06:51:45;8.90;99.90
10083;DHT22;5080;48.528;8.078;2023-04-15T06:54:12;9.10;99.90
10083;DHT22;5080;48.528;8.078;2023-04-15T06:56:39;9.20;99.90
10083;DHT22;5080;48.528;8.078;2023-04-15T06:59:06;9.30;99.90
10083;DHT22;5080;48.528;8.078;2023-04-15T07:01:33;9.50;99.90
10083;DHT22;5080;48.528;8.078;2023-04-15T07:04:00;9.70;99.90
10083;DHT22;5080;48.528;8.078;2023-04-15T07:06:26;9.80;99.90
10083;DHT22;5080;48.528;8.078;2023-04-15T07:08:55;10.00;99.90
10083;DHT22;5080;48.528;8.078;2023-04-15T07:11:21;10.10;99.90
10083;DHT22;5080;48.528;8.078;2023-04-15T07:13:48;10.10;99.90
10083;DHT22;5080;48.528;8.078;2023-04-15T07:16:15;10.20;99.90
10083;DHT22;5080;48.528;8.078;2023-04-15T07:18:42;10.30;99.90
10083;DHT22;5080;48.528;8.078;2023-04-15T07:21:09;10.30;99.90
10083;DHT22;5080;48.528;8.078;2023-04-15T07:23:37;10.40;99.90
10083;DHT22;5080;48.528;8.078;2023-04-15T07:26:05;10.40;99.90
10083;DHT22;5080;48.528;8.078;2023-04-15T07:28:32;10.30;99.90
10083;DHT22;5080;48.528;8.078;2023-04-15T07:30:59;10.40;99.90
10083;DHT22;5080;48.528;8.078;2023-04-15T07:33:25;10.60;99.90
10083;DHT22;5080;48.528;8.078;2023-04-15T07:35:52;10.70;99.90
10083;DHT22;5080;48.528;8.078;2023-04-15T07:38:19;10.80;99.90
10083;DHT22;5080;48.528;8.078;2023-04-15T07:40:46;10.90;99.90
10083;DHT22;5080;48.528;8.078;2023-04-15T07:43:15;11.00;99.90
10083;DHT22;5080;48.528;8.078;2023-04-15T07:45:42;11.20;99.90
10083;DHT22;5080;48.528;8.078;2023-04-15T07:48:09;11.20;99.90
10083;DHT22;5080;48.528;8.078;2023-04-15T07:50:36;11.20;99.90
10083;DHT22;5080;48.528;8.078;2023-04-15T07:53:02;11.30;99.90
10083;DHT22;5080;48.528;8.078;2023-04-15T07:55:30;11.50;99.90
10083;DHT22;5080;48.528;8.078;2023-04-15T07:57:56;11.50;99.90
10083;DHT22;5080;48.528;8.078;2023-04-15T08:00:25;11.60;99.90
10083;DHT22;5080;48.528;8.078;2023-04-15T08:02:52;11.60;99.90
10083;DHT22;5080;48.528;8.078;2023-04-15T08:05:21;11.70;99.90
10083;DHT22;5080;48.528;8.078;2023-04-15T08:07:48;11.70;99.90
10083;DHT22;5080;48.528;8.078;2023-04-15T08:10:15;11.90;99.90
10083;DHT22;5080;48.528;8.078;2023-04-15T08:12:42;12.00;99.90
10083;DHT22;5080;48.528;8.078;2023-04-15T08:15:13;12.10;99.90
10083;DHT22;5080;48.528;8.078;2023-04-15T08:17:42;12.20;99.90
10083;DHT22;5080;48.528;8.078;2023-04-15T08:20:10;12.30;99.90
10083;DHT22;5080;48.528;8.078;2023-04-15T08:22:37;12.00;99.90
10083;DHT22;5080;48.528;8.078;2023-04-15T08:25:04;12.10;99.90
10083;DHT22;5080;48.528;8.078;2023-04-15T08:27:31;12.20;99.90
10083;DHT22;5080;48.528;8.078;2023-04-15T08:29:58;12.40;99.90
10083;DHT22;5080;48.528;8.078;2023-04-15T08:32:25;12.60;99.90
10083;DHT22;5080;48.528;8.078;2023-04-15T08:34:53;12.80;99.90
10083;DHT22;5080;48.528;8.078;2023-04-15T08:37:20;13.00;99.90
10083;DHT22;5080;48.528;8.078;2023-04-15T08:39:47;13.10;99.90
10083;DHT22;5080;48.528;8.078;2023-04-15T08:42:16;13.20;99.90
10083;DHT22;5080;48.528;8.078;2023-04-15T08:44:43;13.40;99.90
10083;DHT22;5080;48.528;8.078;2023-04-15T08:47:12;13.60;99.90
10083;DHT22;5080;48.528;8.078;2023-04-15T08:49:42;13.70;99.90
10083;DHT22;5080;48.528;8.078;2023-04-15T08:52:10;13.90;99.90
10083;DHT22;5080;48.528;8.078;2023-04-15T08:54:37;14.10;99.90
10083;DHT22;5080;48.528;8.078;2023-04-15T08:57:04;14.00;99.90
10083;DHT22;5080;48.528;8.078;2023-04-15T08:59:32;14.20;99.90
10083;DHT22;5080;48.528;8.078;2023-04-15T09:02:00;14.10;99.90
10083;DHT22;5080;48.528;8.078;2023-04-15T09:04:28;14.10;99.90
10083;DHT22;5080;48.528;8.078;2023-04-15T09:06:55;14.20;99.90
10083;DHT22;5080;48.528;8.078;2023-04-15T09:09:24;14.20;99.90
10083;DHT22;5080;48.528;8.078;2023-04-15T09:11:51;14.20;99.90
10083;DHT22;5080;48.528;8.078;2023-04-15T09:14:17;14.20;99.90
10083;DHT22;5080;48.528;8.078;2023-04-15T09:16:58;14.40;99.90
10083;DHT22;5080;48.528;8.078;2023-04-15T09:19:25;14.60;99.90
10083;DHT22;5080;48.528;8.078;2023-04-15T09:21:53;14.70;99.90
10083;DHT22;5080;48.528;8.078;2023-04-15T09:24:21;14.80;99.90
10083;DHT22;5080;48.528;8.078;2023-04-15T09:26:53;14.80;99.90
10083;DHT22;5080;48.528;8.078;2023-04-15T09:29:23;14.60;99.90
10083;DHT22;5080;48.528;8.078;2023-04-15T09:31:51;14.60;99.90
10083;DHT22;5080;48.528;8.078;2023-04-15T09:34:18;14.40;99.90
10083;DHT22;5080;48.528;8.078;2023-04-15T09:36:53;14.50;99.90
10083;DHT22;5080;48.528;8.078;2023-04-15T09:39:20;14.40;99.90
10083;DHT22;5080;48.528;8.078;2023-04-15T09:42:04;14.40;99.90
10083;DHT22;5080;48.528;8.078;2023-04-15T09:44:32;14.40;99.90
10083;DHT22;5080;48.528;8.078;2023-04-15T09:46:59;14.50;99.90
10083;DHT22;5080;48.528;8.078;2023-04-15T09:49:26;14.80;99.90
10083;DHT22;5080;48.528;8.078;2023-04-15T09:51:57;15.10;99.90
10083;DHT22;5080;48.528;8.078;2023-04-15T09:54:32;15.20;99.90
10083;DHT22;5080;48.528;8.078;2023-04-15T09:57:06;15.40;99.90
10083;DHT22;5080;48.528;8.078;2023-04-15T09:59:33;15.30;99.90
10083;DHT22;5080;48.528;8.078;2023-04-15T10:02:00;15.40;99.90
10083;DHT22;5080;48.528;8.078;2023-04-15T10:04:27;15.40;99.90
10083;DHT22;5080;48.528;8.078;2023-04-15T10:06:56;15.50;99.90
10083;DHT22;5080;48.528;8.078;2023-04-15T10:09:23;15.50;99.90
10083;DHT22;5080;48.528;8.078;2023-04-15T10:11:50;15.50;99.90
10083;DHT22;5080;48.528;8.078;2023-04-15T10:14:19;15.40;99.90
10083;DHT22;5080;48.528;8.078;2023-04-15T10:16:48;15.40;99.90
10083;DHT22;5080;48.528;8.078;2023-04-15T10:19:18;15.70;99.90
10083;DHT22;5080;48.528;8.078;2023-04-15T10:21:48;15.50;99.90
10083;DHT22;5080;48.528;8.078;2023-04-15T10:24:16;15.60;99.90
10083;DHT22;5080;48.528;8.078;2023-04-15T10:26:43;15.70;99.90
10083;DHT22;5080;48.528;8.078;2023-04-15T10:29:10;15.80;99.90
10083;DHT22;5080;48.528;8.078;2023-04-15T10:31:40;15.70;99.90
10083;DHT22;5080;48.528;8.078;2023-04-15T10:34:07;15.90;99.90
10083;DHT22;5080;48.528;8.078;2023-04-15T10:36:35;16.00;99.90
10083;DHT22;5080;48.528;8.078;2023-04-15T10:39:38;15.70;99.90
10083;DHT22;5080;48.528;8.078;2023-04-15T10:42:06;15.60;99.90
10083;DHT22;5080;48.528;8.078;2023-04-15T10:44:34;15.90;99.90
10083;DHT22;5080;48.528;8.078;2023-04-15T10:47:06;16.30;99.90
10083;DHT22;5080;48.528;8.078;2023-04-15T10:49:42;16.30;99.90
10083;DHT22;5080;48.528;8.078;2023-04-15T10:52:10;16.40;99.90
10083;DHT22;5080;48.528;8.078;2023-04-15T10:54:38;16.60;99.90
10083;DHT22;5080;48.528;8.078;2023-04-15T10:57:14;16.80;99.90
10083;DHT22;5080;48.528;8.078;2023-04-15T10:59:59;16.80;99.90
10083;DHT22;5080;48.528;8.078;2023-04-15T11:02:39;16.70;99.90
10083;DHT22;5080;48.528;8.078;2023-04-15T11:05:07;16.70;99.90
10083;DHT22;5080;48.528;8.078;2023-04-15T11:07:36;16.70;99.90
10083;DHT22;5080;48.528;8.078;2023-04-15T11:10:05;16.70;99.90
10083;DHT22;5080;48.528;8.078;2023-04-15T11:12:52;16.80;99.90
10083;DHT22;5080;48.528;8.078;2023-04-15T11:15:27;16.70;99.90
10083;DHT22;5080;48.528;8.078;2023-04-15T11:17:57;16.50;99.90
10083;DHT22;5080;48.528;8.078;2023-04-15T11:20:24;16.60;99.90
10083;DHT22;5080;48.528;8.078;2023-04-15T11:22:53;16.60;99.90
10083;DHT22;5080;48.528;8.078;2023-04-15T11:25:23;16.70;99.90
10083;DHT22;5080;48.528;8.078;2023-04-15T11:27:50;17.00;99.90
10083;DHT22;5080;48.528;8.078;2023-04-15T11:30:20;17.30;99.90
10083;DHT22;5080;48.528;8.078;2023-04-15T11:32:47;17.40;99.90
10083;DHT22;5080;48.528;8.078;2023-04-15T11:35:17;17.20;99.90
10083;DHT22;5080;48.528;8.078;2023-04-15T11:37:45;17.20;99.90
10083;DHT22;5080;48.528;8.078;2023-04-15T11:40:12;17.10;99.90
10083;DHT22;5080;48.528;8.078;2023-04-15T11:42:40;16.80;99.90
10083;DHT22;5080;48.528;8.078;2023-04-15T11:45:07;16.70;99.90
10083;DHT22;5080;48.528;8.078;2023-04-15T11:47:34;16.70;99.90
10083;DHT22;5080;48.528;8.078;2023-04-15T11:50:16;16.70;99.90
10083;DHT22;5080;48.528;8.078;2023-04-15T11:52:52;16.90;99.90
10083;DHT22;5080;48.528;8.078;2023-04-15T11:55:19;16.80;99.90
10083;DHT22;5080;48.528;8.078;2023-04-15T11:57:46;17.00;99.90
10083;DHT22;5080;48.528;8.078;2023-04-15T12:00:13;17.00;99.90
10083;DHT22;5080;48.528;8.078;2023-04-15T12:02:42;17.10;99.90
10083;DHT22;5080;48.528;8.078;2023-04-15T12:05:08;17.30;99.90
10083;DHT22;5080;48.528;8.078;2023-04-15T12:07:59;17.50;98.80
10083;DHT22;5080;48.528;8.078;2023-04-15T12:10:25;17.60;96.40
10083;DHT22;5080;48.528;8.078;2023-04-15T12:12:52;17.60;95.40
10083;DHT22;5080;48.528;8.078;2023-04-15T12:15:21;17.60;93.90
10083;DHT22;5080;48.528;8.078;2023-04-15T12:17:48;17.70;94.50
10083;DHT22;5080;48.528;8.078;2023-04-15T12:20:23;17.60;95.20
10083;DHT22;5080;48.528;8.078;2023-04-15T12:22:50;17.40;95.00
10083;DHT22;5080;48.528;8.078;2023-04-15T12:25:33;17.60;95.10
10083;DHT22;5080;48.528;8.078;2023-04-15T12:27:59;17.50;94.20
10083;DHT22;5080;48.528;8.078;2023-04-15T12:30:26;17.50;94.00
10083;DHT22;5080;48.528;8.078;2023-04-15T12:32:53;17.70;95.20
10083;DHT22;5080;48.528;8.078;2023-04-15T12:35:21;17.80;92.30
10083;DHT22;5080;48.528;8.078;2023-04-15T12:37:47;17.60;91.30
10083;DHT22;5080;48.528;8.078;2023-04-15T12:40:18;17.70;92.20
10083;DHT22;5080;48.528;8.078;2023-04-15T12:42:45;17.80;93.40
10083;DHT22;5080;48.528;8.078;2023-04-15T12:45:13;17.60;90.40
10083;DHT22;5080;48.528;8.078;2023-04-15T12:47:39;17.40;88.40
10083;DHT22;5080;48.528;8.078;2023-04-15T12:50:07;17.50;89.40
10083;DHT22;5080;48.528;8.078;2023-04-15T12:52:34;17.70;89.50
10083;DHT22;5080;48.528;8.078;2023-04-15T12:55:01;17.90;87.50
10083;DHT22;5080;48.528;8.078;2023-04-15T12:57:29;17.80;88.50
10083;DHT22;5080;48.528;8.078;2023-04-15T12:59:55;17.90;89.70
10083;DHT22;5080;48.528;8.078;2023-04-15T13:02:22;17.80;89.70
10083;DHT22;5080;48.528;8.078;2023-04-15T13:04:49;17.80;90.70
10083;DHT22;5080;48.528;8.078;2023-04-15T13:07:16;18.00;91.40
10083;DHT22;5080;48.528;8.078;2023-04-15T13:09:43;18.00;91.90
10083;DHT22;5080;48.528;8.078;2023-04-15T13:12:11;18.00;92.20
10083;DHT22;5080;48.528;8.078;2023-04-15T13:14:40;17.90;92.30
10083;DHT22;5080;48.528;8.078;2023-04-15T13:17:07;17.90;92.50
10083;DHT22;5080;48.528;8.078;2023-04-15T13:19:34;17.70;93.30
10083;DHT22;5080;48.528;8.078;2023-04-15T13:22:02;17.70;93.90
10083;DHT22;5080;48.528;8.078;2023-04-15T13:24:29;17.80;93.90
10083;DHT22;5080;48.528;8.078;2023-04-15T13:26:56;17.80;94.60
10083;DHT22;5080;48.528;8.078;2023-04-15T13:29:23;17.60;93.40
10083;DHT22;5080;48.528;8.078;2023-04-15T13:31:52;17.40;94.70
10083;DHT22;5080;48.528;8.078;2023-04-15T13:34:18;17.30;95.10
10083;DHT22;5080;48.528;8.078;2023-04-15T13:36:46;17.30;95.90
10083;DHT22;5080;48.528;8.078;2023-04-15T13:39:13;17.50;96.40
10083;DHT22;5080;48.528;8.078;2023-04-15T13:41:39;17.80;96.50
10083;DHT22;5080;48.528;8.078;2023-04-15T13:44:07;17.80;97.20
10083;DHT22;5080;48.528;8.078;2023-04-15T13:46:33;17.90;97.10
10083;DHT22;5080;48.528;8.078;2023-04-15T13:49:02;17.70;95.80
10083;DHT22;5080;48.528;8.078;2023-04-15T13:51:28;17.70;96.80
10083;DHT22;5080;48.528;8.078;2023-04-15T13:53:56;17.70;97.00
10083;DHT22;5080;48.528;8.078;2023-04-15T13:56:23;17.60;96.50
10083;DHT22;5080;48.528;8.078;2023-04-15T13:58:51;17.40;96.10
10083;DHT22;5080;48.528;8.078;2023-04-15T14:01:19;17.30;97.20
10083;DHT22;5080;48.528;8.078;2023-04-15T14:03:46;17.30;98.10
10083;DHT22;5080;48.528;8.078;2023-04-15T14:06:14;17.70;98.30
10083;DHT22;5080;48.528;8.078;2023-04-15T14:08:41;17.70;98.20
10083;DHT22;5080;48.528;8.078;2023-04-15T14:11:08;17.80;98.90
10083;DHT22;5080;48.528;8.078;2023-04-15T14:13:35;17.80;98.50
10083;DHT22;5080;48.528;8.078;2023-04-15T14:16:02;17.40;98.70
10083;DHT22;5080;48.528;8.078;2023-04-15T14:18:29;17.10;99.30
10083;DHT22;5080;48.528;8.078;2023-04-15T14:20:55;17.10;99.90
10083;DHT22;5080;48.528;8.078;2023-04-15T14:23:24;17.10;99.90
10083;DHT22;5080;48.528;8.078;2023-04-15T14:25:51;17.10;99.90
10083;DHT22;5080;48.528;8.078;2023-04-15T14:28:18;17.30;99.90
10083;DHT22;5080;48.528;8.078;2023-04-15T14:30:45;17.50;99.90
10083;DHT22;5080;48.528;8.078;2023-04-15T14:33:12;17.20;99.90
10083;DHT22;5080;48.528;8.078;2023-04-15T14:35:39;17.00;99.90
10083;DHT22;5080;48.528;8.078;2023-04-15T14:38:06;17.00;99.90
10083;DHT22;5080;48.528;8.078;2023-04-15T14:40:36;17.00;99.90
10083;DHT22;5080;48.528;8.078;2023-04-15T14:43:03;16.90;99.90
10083;DHT22;5080;48.528;8.078;2023-04-15T14:45:30;16.90;99.90
10083;DHT22;5080;48.528;8.078;2023-04-15T14:47:57;16.80;99.90
10083;DHT22;5080;48.528;8.078;2023-04-15T14:50:24;16.80;99.90
10083;DHT22;5080;48.528;8.078;2023-04-15T14:52:51;16.70;99.90
10083;DHT22;5080;48.528;8.078;2023-04-15T14:55:17;16.70;99.90
10083;DHT22;5080;48.528;8.078;2023-04-15T14:57:46;16.70;99.90
10083;DHT22;5080;48.528;8.078;2023-04-15T15:00:14;16.70;99.90
10083;DHT22;5080;48.528;8.078;2023-04-15T15:02:41;16.80;99.90
10083;DHT22;5080;48.528;8.078;2023-04-15T15:05:08;16.60;99.90
10083;DHT22;5080;48.528;8.078;2023-04-15T15:07:37;16.50;99.90
10083;DHT22;5080;48.528;8.078;2023-04-15T15:10:05;16.60;99.90
10083;DHT22;5080;48.528;8.078;2023-04-15T15:12:33;16.50;99.90
10083;DHT22;5080;48.528;8.078;2023-04-15T15:15:01;16.50;99.90
10083;DHT22;5080;48.528;8.078;2023-04-15T15:17:28;16.50;99.90
10083;DHT22;5080;48.528;8.078;2023-04-15T15:19:55;16.20;99.90
10083;DHT22;5080;48.528;8.078;2023-04-15T15:22:22;16.20;99.90
10083;DHT22;5080;48.528;8.078;2023-04-15T15:24:50;16.20;99.90
10083;DHT22;5080;48.528;8.078;2023-04-15T15:27:18;16.20;99.90
10083;DHT22;5080;48.528;8.078;2023-04-15T15:29:44;16.20;99.90
10083;DHT22;5080;48.528;8.078;2023-04-15T15:32:13;16.10;99.90
10083;DHT22;5080;48.528;8.078;2023-04-15T15:34:40;16.30;99.90
10083;DHT22;5080;48.528;8.078;2023-04-15T15:37:06;16.30;99.90
10083;DHT22;5080;48.528;8.078;2023-04-15T15:39:34;16.20;99.90
10083;DHT22;5080;48.528;8.078;2023-04-15T15:42:00;16.20;99.90
10083;DHT22;5080;48.528;8.078;2023-04-15T15:44:27;16.20;99.90
10083;DHT22;5080;48.528;8.078;2023-04-15T15:46:54;16.10;99.90
10083;DHT22;5080;48.528;8.078;2023-04-15T15:49:23;16.20;99.90
10083;DHT22;5080;48.528;8.078;2023-04-15T15:51:52;16.20;99.90
10083;DHT22;5080;48.528;8.078;2023-04-15T15:54:19;16.20;99.90
10083;DHT22;5080;48.528;8.078;2023-04-15T15:56:46;16.10;99.90
10083;DHT22;5080;48.528;8.078;2023-04-15T15:59:12;16.00;99.90